createdAt,value
2019-01-29T00:00:44.769Z,98227.00
2019-01-29T00:02:50.236Z,98225.00
2019-01-29T00:04:55.126Z,98220.00
2019-01-29T00:06:59.957Z,98226.00
2019-01-29T00:09:08.917Z,98230.00
2019-01-29T00:11:13.712Z,98236.00
2019-01-29T00:13:18.517Z,98223.00
2019-01-29T00:15:23.609Z,98236.00
2019-01-29T00:17:28.763Z,98229.00
2019-01-29T00:19:33.901Z,98237.00
2019-01-29T00:21:38.708Z,98237.00
2019-01-29T00:23:43.524Z,98239.00
2019-01-29T00:25:48.338Z,98245.00
2019-01-29T00:27:53.232Z,98248.00
2019-01-29T00:29:58.131Z,98246.00
2019-01-29T00:32:02.958Z,98240.00
2019-01-29T00:34:07.838Z,98242.00
2019-01-29T00:36:12.931Z,98246.00
2019-01-29T00:38:17.738Z,98252.00
2019-01-29T00:40:22.766Z,98252.00
2019-01-29T00:42:27.608Z,98255.00
2019-01-29T00:44:32.680Z,98248.00
2019-01-29T00:46:37.523Z,98256.00
2019-01-29T00:48:42.411Z,98258.00
2019-01-29T00:50:47.959Z,98253.00
2019-01-29T00:52:53.160Z,98252.00
2019-01-29T00:54:57.968Z,98258.00
2019-01-29T00:57:02.838Z,98258.00
2019-01-29T00:59:07.757Z,98249.00
2019-01-29T01:01:12.646Z,98248.00
2019-01-29T01:03:17.655Z,98251.00
2019-01-29T01:05:23.198Z,98262.00
2019-01-29T01:07:28.168Z,98255.00
2019-01-29T01:09:33.054Z,98265.00
2019-01-29T01:11:37.952Z,98268.00
2019-01-29T01:13:43.913Z,98278.00
2019-01-29T01:15:48.941Z,98268.00
2019-01-29T01:17:53.879Z,98271.00
2019-01-29T01:19:58.816Z,98264.00
2019-01-29T01:22:03.808Z,98271.00
2019-01-29T01:24:08.715Z,98278.00
2019-01-29T01:26:13.527Z,98284.00
2019-01-29T01:28:18.362Z,98285.00
2019-01-29T01:30:23.418Z,98291.00
2019-01-29T01:32:28.650Z,98295.00
2019-01-29T01:34:33.471Z,98295.00
2019-01-29T01:36:38.350Z,98305.00
2019-01-29T01:38:43.264Z,98307.00
2019-01-29T01:40:48.150Z,98304.00
2019-01-29T01:42:53.396Z,98304.00
2019-01-29T01:44:58.237Z,98306.00
2019-01-29T01:47:03.424Z,98302.00
2019-01-29T01:49:08.759Z,98311.00
2019-01-29T01:51:13.557Z,98304.00
2019-01-29T01:53:18.367Z,98301.00
2019-01-29T01:55:23.750Z,98309.00
2019-01-29T01:57:28.570Z,98300.00
2019-01-29T01:59:33.702Z,98298.00
2019-01-29T02:01:38.518Z,98304.00
2019-01-29T02:03:43.810Z,98307.00
2019-01-29T02:05:48.675Z,98308.00
2019-01-29T02:07:53.519Z,98312.00
2019-01-29T02:09:58.334Z,98309.00
2019-01-29T02:12:03.208Z,98312.00
2019-01-29T02:14:08.267Z,98321.00
2019-01-29T02:16:13.147Z,98304.00
2019-01-29T02:18:18.033Z,98309.00
2019-01-29T02:20:23.331Z,98318.00
2019-01-29T02:22:28.854Z,98320.00
2019-01-29T02:24:33.723Z,98314.00
2019-01-29T02:26:38.851Z,98317.00
2019-01-29T02:28:43.771Z,98317.00
2019-01-29T02:30:48.642Z,98324.00
2019-01-29T02:32:53.653Z,98325.00
2019-01-29T02:34:58.581Z,98323.00
2019-01-29T02:37:03.388Z,98314.00
2019-01-29T02:39:10.375Z,98314.00
2019-01-29T02:41:15.534Z,98325.00
2019-01-29T02:43:20.350Z,98332.00
2019-01-29T02:45:25.670Z,98325.00
2019-01-29T02:47:30.747Z,98333.00
2019-01-29T02:49:35.872Z,98326.00
2019-01-29T02:51:40.680Z,98335.00
2019-01-29T02:53:45.501Z,98327.00
2019-01-29T02:55:50.336Z,98341.00
2019-01-29T02:57:55.135Z,98339.00
2019-01-29T02:59:59.983Z,98336.00
2019-01-29T03:02:05.741Z,98346.00
2019-01-29T03:04:10.902Z,98346.00
2019-01-29T03:06:15.877Z,98338.00
2019-01-29T03:08:20.697Z,98339.00
2019-01-29T03:10:27.559Z,98344.00
2019-01-29T03:12:32.418Z,98353.00
2019-01-29T03:14:37.231Z,98351.00
2019-01-29T03:16:42.195Z,98353.00
2019-01-29T03:18:47.337Z,98357.00
2019-01-29T03:20:52.313Z,98366.00
2019-01-29T03:22:57.489Z,98360.00
2019-01-29T03:25:02.567Z,98355.00
2019-01-29T03:27:07.395Z,98361.00
2019-01-29T03:29:12.219Z,98357.00
2019-01-29T03:31:17.377Z,98355.00
2019-01-29T03:33:22.285Z,98361.00
2019-01-29T03:35:27.119Z,98358.00
2019-01-29T03:37:32.326Z,98350.00
2019-01-29T03:39:37.198Z,98354.00
2019-01-29T03:41:42.020Z,98356.00
2019-01-29T03:43:46.947Z,98363.00
2019-01-29T03:45:51.748Z,98358.00
2019-01-29T03:47:56.662Z,98358.00
2019-01-29T03:50:01.492Z,98361.00
2019-01-29T03:52:06.861Z,98362.00
2019-01-29T03:54:11.738Z,98359.00
2019-01-29T03:56:16.653Z,98354.00
2019-01-29T03:58:21.536Z,98372.00
2019-01-29T04:00:28.072Z,98369.00
2019-01-29T04:02:33.039Z,98372.00
2019-01-29T04:04:37.936Z,98369.00
2019-01-29T04:06:42.751Z,98350.00
2019-01-29T04:08:47.575Z,98367.00
2019-01-29T04:10:52.417Z,98360.00
2019-01-29T04:12:57.219Z,98377.00
2019-01-29T04:15:02.039Z,98369.00
2019-01-29T04:17:07.056Z,98372.00
2019-01-29T04:19:11.856Z,98364.00
2019-01-29T04:21:16.810Z,98366.00
2019-01-29T04:23:21.880Z,98373.00
2019-01-29T04:25:27.160Z,98382.00
2019-01-29T04:27:31.988Z,98380.00
2019-01-29T04:29:37.211Z,98383.00
2019-01-29T04:31:42.119Z,98384.00
2019-01-29T04:33:46.971Z,98383.00
2019-01-29T04:35:51.978Z,98380.00
2019-01-29T04:37:56.806Z,98377.00
2019-01-29T04:40:01.631Z,98386.00
2019-01-29T04:42:06.903Z,98381.00
2019-01-29T04:44:11.789Z,98372.00
2019-01-29T04:46:16.619Z,98379.00
2019-01-29T04:48:21.528Z,98384.00
2019-01-29T04:50:26.448Z,98378.00
2019-01-29T04:52:31.252Z,98379.00
2019-01-29T04:54:36.439Z,98378.00
2019-01-29T04:56:41.478Z,98380.00
2019-01-29T04:58:46.291Z,98380.00
2019-01-29T05:00:51.205Z,98370.00
2019-01-29T05:02:56.265Z,98378.00
2019-01-29T05:05:01.160Z,98378.00
2019-01-29T05:07:06.003Z,98378.00
2019-01-29T05:09:12.158Z,98374.00
2019-01-29T05:11:16.984Z,98374.00
2019-01-29T05:13:21.875Z,98376.00
2019-01-29T05:15:26.770Z,98374.00
2019-01-29T05:17:31.752Z,98375.00
2019-01-29T05:19:36.857Z,98378.00
2019-01-29T05:21:41.719Z,98374.00
2019-01-29T05:23:50.234Z,98373.00
2019-01-29T05:25:55.047Z,98373.00
2019-01-29T05:27:59.921Z,98375.00
2019-01-29T05:30:07.258Z,98372.00
2019-01-29T05:32:12.215Z,98363.00
2019-01-29T05:34:17.045Z,98363.00
2019-01-29T05:36:21.870Z,98379.00
2019-01-29T05:38:26.691Z,98376.00
2019-01-29T05:40:31.521Z,98376.00
2019-01-29T05:42:36.348Z,98381.00
2019-01-29T05:44:41.171Z,98373.00
2019-01-29T05:46:45.990Z,98372.00
2019-01-29T05:48:50.810Z,98372.00
2019-01-29T05:50:55.628Z,98381.00
2019-01-29T05:53:00.735Z,98383.00
2019-01-29T05:55:06.170Z,98378.00
2019-01-29T05:57:11.138Z,98378.00
2019-01-29T05:59:15.960Z,98377.00
2019-01-29T06:01:21.011Z,98369.00
2019-01-29T06:03:25.817Z,98375.00
2019-01-29T06:05:31.147Z,98376.00
2019-01-29T06:07:35.961Z,98376.00
2019-01-29T06:09:40.851Z,98375.00
2019-01-29T06:11:46.089Z,98379.00
2019-01-29T06:13:50.900Z,98383.00
2019-01-29T06:15:56.101Z,98383.00
2019-01-29T06:18:01.171Z,98381.00
2019-01-29T06:20:09.876Z,98379.00
2019-01-29T06:22:14.726Z,98386.00
2019-01-29T06:24:25.522Z,98382.00
2019-01-29T06:26:26.260Z,98384.00
2019-01-29T06:28:31.122Z,98377.00
2019-01-29T06:30:35.935Z,98372.00
2019-01-29T06:32:40.870Z,98379.00
2019-01-29T06:34:45.679Z,98375.00
2019-01-29T06:36:50.965Z,98385.00
2019-01-29T06:38:55.820Z,98372.00
2019-01-29T06:41:00.690Z,98380.00
2019-01-29T06:43:05.640Z,98379.00
2019-01-29T06:45:13.404Z,98374.00
2019-01-29T06:47:18.213Z,98377.00
2019-01-29T06:49:24.126Z,98380.00
2019-01-29T06:51:29.090Z,98385.00
2019-01-29T06:53:33.910Z,98386.00
2019-01-29T06:55:39.066Z,98385.00
2019-01-29T06:57:44.575Z,98386.00
2019-01-29T06:59:49.941Z,98388.00
2019-01-29T07:01:54.856Z,98395.00
2019-01-29T07:03:59.934Z,98389.00
2019-01-29T07:06:04.903Z,98389.00
2019-01-29T07:08:09.727Z,98397.00
2019-01-29T07:10:16.832Z,98390.00
2019-01-29T07:12:21.981Z,98384.00
2019-01-29T07:14:27.138Z,98389.00
2019-01-29T07:16:44.814Z,98400.00
2019-01-29T07:19:00.127Z,98400.00
2019-01-29T07:21:08.511Z,98403.00
2019-01-29T07:23:13.432Z,98409.00
2019-01-29T07:25:18.545Z,98418.00
2019-01-29T07:27:23.622Z,98407.00
2019-01-29T07:29:28.435Z,98420.00
2019-01-29T07:31:33.336Z,98423.00
2019-01-29T07:33:38.250Z,98416.00
2019-01-29T07:35:43.055Z,98410.00
2019-01-29T07:37:47.995Z,98419.00
2019-01-29T07:39:52.808Z,98417.00
2019-01-29T07:41:57.640Z,98407.00
2019-01-29T07:44:06.441Z,98413.00
2019-01-29T07:46:11.533Z,98411.00
2019-01-29T07:48:16.394Z,98403.00
2019-01-29T07:50:21.195Z,98406.00
2019-01-29T07:52:26.276Z,98410.00
2019-01-29T07:54:33.330Z,98409.00
2019-01-29T07:56:37.678Z,98410.00
2019-01-29T07:58:42.889Z,98403.00
2019-01-29T08:00:47.775Z,98405.00
2019-01-29T08:02:52.845Z,98404.00
2019-01-29T08:04:57.784Z,98404.00
2019-01-29T08:07:02.931Z,98409.00
2019-01-29T08:09:11.077Z,98399.00
2019-01-29T08:11:15.894Z,98405.00
2019-01-29T08:13:20.866Z,98402.00
2019-01-29T08:15:25.900Z,98397.00
2019-01-29T08:17:30.725Z,98409.00
2019-01-29T08:19:35.648Z,98393.00
2019-01-29T08:21:40.477Z,98392.00
2019-01-29T08:23:45.662Z,98400.00
2019-01-29T08:25:50.463Z,98400.00
2019-01-29T08:27:55.333Z,98398.00
2019-01-29T08:30:00.186Z,98389.00
2019-01-29T08:32:05.297Z,98393.00
2019-01-29T08:34:10.273Z,98389.00
2019-01-29T08:36:15.101Z,98393.00
2019-01-29T08:38:19.943Z,98392.00
2019-01-29T08:40:25.431Z,98389.00
2019-01-29T08:42:30.340Z,98393.00
2019-01-29T08:44:36.089Z,98390.00
2019-01-29T08:46:40.902Z,98385.00
2019-01-29T08:48:45.791Z,98386.00
2019-01-29T08:50:50.736Z,98382.00
2019-01-29T08:52:55.712Z,98382.00
2019-01-29T08:55:00.629Z,98391.00
2019-01-29T08:57:05.813Z,98382.00
2019-01-29T08:59:10.693Z,98385.00
2019-01-29T09:01:15.595Z,98377.00
2019-01-29T09:03:20.553Z,98384.00
2019-01-29T09:05:25.508Z,98379.00
2019-01-29T09:07:30.324Z,98385.00
2019-01-29T09:09:35.426Z,98383.00
2019-01-29T09:11:40.476Z,98382.00
2019-01-29T09:13:45.376Z,98383.00
2019-01-29T09:15:50.184Z,98384.00
2019-01-29T09:17:55.083Z,98374.00
2019-01-29T09:19:59.900Z,98381.00
2019-01-29T09:22:04.807Z,98382.00
2019-01-29T09:24:09.707Z,98384.00
2019-01-29T09:26:14.510Z,98377.00
2019-01-29T09:28:19.422Z,98372.00
2019-01-29T09:30:24.735Z,98375.00
2019-01-29T09:32:29.947Z,98378.00
2019-01-29T09:34:35.118Z,98367.00
2019-01-29T09:36:39.937Z,98365.00
2019-01-29T09:38:44.836Z,98368.00
2019-01-29T09:40:49.871Z,98362.00
2019-01-29T09:42:54.759Z,98361.00
2019-01-29T09:44:59.657Z,98358.00
2019-01-29T09:47:04.910Z,98356.00
2019-01-29T09:49:11.245Z,98359.00
2019-01-29T09:51:16.271Z,98360.00
2019-01-29T09:53:21.115Z,98353.00
2019-01-29T09:55:29.414Z,98357.00
2019-01-29T09:57:33.367Z,98350.00
2019-01-29T09:59:38.282Z,98349.00
2019-01-29T10:01:43.176Z,98361.00
2019-01-29T10:03:48.035Z,98345.00
2019-01-29T10:05:52.862Z,98354.00
2019-01-29T10:07:57.737Z,98348.00
2019-01-29T10:10:02.737Z,98354.00
2019-01-29T10:12:07.712Z,98337.00
2019-01-29T10:14:12.598Z,98346.00
2019-01-29T10:16:17.425Z,98335.00
2019-01-29T10:18:22.229Z,98334.00
2019-01-29T10:20:28.391Z,98322.00
2019-01-29T10:22:33.219Z,98319.00
2019-01-29T10:24:38.027Z,98324.00
2019-01-29T10:26:43.003Z,98312.00
2019-01-29T10:28:48.080Z,98315.00
2019-01-29T10:30:53.159Z,98310.00
2019-01-29T10:32:58.059Z,98309.00
2019-01-29T10:35:02.962Z,98311.00
2019-01-29T10:37:08.028Z,98305.00
2019-01-29T10:39:12.945Z,98303.00
2019-01-29T10:41:17.850Z,98306.00
2019-01-29T10:43:23.028Z,98295.00
2019-01-29T10:45:29.315Z,98298.00
2019-01-29T10:47:34.213Z,98298.00
2019-01-29T10:49:39.048Z,98295.00
2019-01-29T10:51:43.880Z,98292.00
2019-01-29T10:53:48.685Z,98283.00
2019-01-29T10:55:53.910Z,98279.00
2019-01-29T10:57:58.959Z,98275.00
2019-01-29T11:00:05.280Z,98272.00
2019-01-29T11:02:10.433Z,98262.00
2019-01-29T11:04:15.461Z,98261.00
2019-01-29T11:06:20.412Z,98264.00
2019-01-29T11:08:25.275Z,98254.00
2019-01-29T11:10:30.171Z,98252.00
2019-01-29T11:12:34.981Z,98243.00
2019-01-29T11:14:39.902Z,98240.00
2019-01-29T11:16:44.799Z,98240.00
2019-01-29T11:18:49.687Z,98238.00
2019-01-29T11:20:54.524Z,98237.00
2019-01-29T11:22:59.429Z,98240.00
2019-01-29T11:25:05.690Z,98244.00
2019-01-29T11:27:10.607Z,98238.00
2019-01-29T11:29:15.889Z,98237.00
2019-01-29T11:31:20.717Z,98231.00
2019-01-29T11:33:25.656Z,98232.00
2019-01-29T11:35:30.635Z,98228.00
2019-01-29T11:37:35.538Z,98229.00
2019-01-29T11:39:40.604Z,98229.00
2019-01-29T11:41:45.802Z,98226.00
2019-01-29T11:43:50.614Z,98222.00
2019-01-29T11:45:56.705Z,98225.00
2019-01-29T11:48:01.790Z,98218.00
2019-01-29T11:50:08.037Z,98225.00
2019-01-29T11:52:12.928Z,98233.00
2019-01-29T11:54:17.738Z,98221.00
2019-01-29T11:56:22.650Z,98220.00
2019-01-29T11:58:27.548Z,98215.00
2019-01-29T12:00:58.976Z,98205.00
2019-01-29T12:03:04.059Z,98206.00
2019-01-29T12:05:09.292Z,98208.00
2019-01-29T12:07:14.325Z,98202.00
2019-01-29T12:09:19.292Z,98202.00
2019-01-29T12:11:24.174Z,98194.00
2019-01-29T12:13:29.067Z,98189.00
2019-01-29T12:15:34.238Z,98192.00
2019-01-29T12:17:39.052Z,98185.00
2019-01-29T12:19:43.850Z,98186.00
2019-01-29T12:21:48.845Z,98180.00
2019-01-29T12:23:53.644Z,98183.00
2019-01-29T12:25:58.618Z,98180.00
2019-01-29T12:28:03.616Z,98184.00
2019-01-29T12:30:14.666Z,98179.00
2019-01-29T12:32:19.560Z,98179.00
2019-01-29T12:34:24.545Z,98171.00
2019-01-29T12:36:29.655Z,98161.00
2019-01-29T12:38:34.919Z,98161.00
2019-01-29T12:40:39.899Z,98159.00
2019-01-29T12:42:44.779Z,98156.00
2019-01-29T12:44:49.589Z,98156.00
2019-01-29T12:46:54.566Z,98161.00
2019-01-29T12:48:59.455Z,98147.00
2019-01-29T12:51:08.473Z,98147.00
2019-01-29T12:53:18.304Z,98135.00
2019-01-29T12:55:23.343Z,98138.00
2019-01-29T12:57:28.157Z,98134.00
2019-01-29T12:59:32.972Z,98133.00
2019-01-29T13:01:37.812Z,98130.00
2019-01-29T13:03:42.613Z,98124.00
2019-01-29T13:05:47.425Z,98122.00
2019-01-29T13:07:52.408Z,98130.00
2019-01-29T13:09:57.499Z,98124.00
2019-01-29T13:12:02.375Z,98116.00
2019-01-29T13:14:07.447Z,98121.00
2019-01-29T13:16:12.433Z,98120.00
2019-01-29T13:18:17.385Z,98116.00
2019-01-29T13:20:22.276Z,98112.00
2019-01-29T13:22:27.089Z,98115.00
2019-01-29T13:24:32.250Z,98114.00
2019-01-29T13:26:37.945Z,98106.00
2019-01-29T13:28:42.859Z,98108.00
2019-01-29T13:30:47.870Z,98105.00
2019-01-29T13:32:52.833Z,98099.00
2019-01-29T13:34:57.920Z,98104.00
2019-01-29T13:37:02.744Z,98089.00
2019-01-29T13:39:09.776Z,98094.00
2019-01-29T13:41:14.854Z,98089.00
2019-01-29T13:43:19.815Z,98090.00
2019-01-29T13:45:24.975Z,98085.00
2019-01-29T13:47:29.848Z,98083.00
2019-01-29T13:49:34.698Z,98080.00
2019-01-29T13:51:39.518Z,98079.00
2019-01-29T13:53:44.624Z,98073.00
2019-01-29T13:55:49.591Z,98076.00
2019-01-29T13:57:54.618Z,98066.00
2019-01-29T13:59:59.425Z,98068.00
2019-01-29T14:02:04.517Z,98054.00
2019-01-29T14:04:09.527Z,98054.00
2019-01-29T14:06:14.427Z,98054.00
2019-01-29T14:08:19.232Z,98057.00
2019-01-29T14:10:24.171Z,98047.00
2019-01-29T14:12:29.006Z,98054.00
2019-01-29T14:14:34.186Z,98050.00
2019-01-29T14:16:39.260Z,98046.00
2019-01-29T14:18:44.106Z,98043.00
2019-01-29T14:20:49.140Z,98041.00
2019-01-29T14:22:54.095Z,98039.00
2019-01-29T14:24:59.156Z,98026.00
2019-01-29T14:27:04.050Z,98031.00
2019-01-29T14:29:08.863Z,98029.00
2019-01-29T14:31:13.987Z,98028.00
2019-01-29T14:33:19.001Z,98033.00
2019-01-29T14:35:24.063Z,98022.00
2019-01-29T14:37:28.867Z,98007.00
2019-01-29T14:40:05.518Z,98012.00
2019-01-29T14:42:10.323Z,98012.00
2019-01-29T14:44:28.977Z,98007.00
2019-01-29T14:46:33.780Z,98006.00
2019-01-29T14:48:38.641Z,98001.00
2019-01-29T14:50:43.476Z,97986.00
2019-01-29T14:52:48.726Z,97991.00
2019-01-29T14:54:53.793Z,97986.00
2019-01-29T14:56:58.674Z,97991.00
2019-01-29T14:59:03.671Z,97982.00
2019-01-29T15:01:08.952Z,97985.00
2019-01-29T15:03:13.947Z,97984.00
2019-01-29T15:05:19.333Z,97983.00
2019-01-29T15:07:30.321Z,97991.00
2019-01-29T15:09:30.736Z,97977.00
2019-01-29T15:11:35.539Z,97977.00
2019-01-29T15:13:40.369Z,97975.00
2019-01-29T15:15:55.604Z,97963.00
2019-01-29T15:18:04.583Z,97967.00
2019-01-29T15:20:11.402Z,97964.00
2019-01-29T15:22:16.367Z,97962.00
2019-01-29T15:24:21.315Z,97970.00
2019-01-29T15:26:26.152Z,97955.00
2019-01-29T15:28:31.016Z,97965.00
2019-01-29T15:30:35.911Z,97958.00
2019-01-29T15:32:40.715Z,97958.00
2019-01-29T15:34:45.587Z,97962.00
2019-01-29T15:36:50.563Z,97962.00
2019-01-29T15:38:55.423Z,97957.00
2019-01-29T15:41:00.374Z,97959.00
2019-01-29T15:43:05.937Z,97959.00
2019-01-29T15:45:15.804Z,97954.00
2019-01-29T15:47:20.642Z,97957.00
2019-01-29T15:49:25.561Z,97950.00
2019-01-29T15:51:30.721Z,97942.00
2019-01-29T15:53:35.536Z,97949.00
2019-01-29T15:55:40.465Z,97936.00
2019-01-29T15:57:46.804Z,97932.00
2019-01-29T15:59:51.613Z,97940.00
2019-01-29T16:01:56.905Z,97929.00
2019-01-29T16:04:01.799Z,97930.00
2019-01-29T16:06:06.969Z,97925.00
2019-01-29T16:08:12.842Z,97929.00
2019-01-29T16:10:22.084Z,97934.00
2019-01-29T16:12:26.900Z,97924.00
2019-01-29T16:14:31.777Z,97918.00
2019-01-29T16:16:36.746Z,97912.00
2019-01-29T16:18:41.674Z,97916.00
2019-01-29T16:20:46.586Z,97912.00
2019-01-29T16:22:51.985Z,97921.00
2019-01-29T16:24:56.817Z,97918.00
2019-01-29T16:27:06.833Z,97906.00
2019-01-29T16:29:09.043Z,97917.00
2019-01-29T16:31:14.002Z,97896.00
2019-01-29T16:33:19.005Z,97909.00
2019-01-29T16:35:28.454Z,97904.00
2019-01-29T16:37:33.265Z,97899.00
2019-01-29T16:39:38.163Z,97903.00
2019-01-29T16:41:42.968Z,97908.00
2019-01-29T16:43:47.786Z,97901.00
2019-01-29T16:45:52.598Z,97912.00
2019-01-29T16:47:58.145Z,97901.00
2019-01-29T16:50:02.967Z,97911.00
2019-01-29T16:52:07.916Z,97900.00
2019-01-29T16:54:12.761Z,97904.00
2019-01-29T16:56:17.554Z,97895.00
2019-01-29T16:58:22.670Z,97888.00
2019-01-29T17:00:30.013Z,97878.00
2019-01-29T17:02:34.844Z,97892.00
2019-01-29T17:04:39.701Z,97883.00
2019-01-29T17:06:44.833Z,97874.00
2019-01-29T17:08:49.706Z,97868.00
2019-01-29T17:10:54.676Z,97878.00
2019-01-29T17:12:59.970Z,97867.00
2019-01-29T17:15:06.074Z,97870.00
2019-01-29T17:17:10.911Z,97867.00
2019-01-29T17:19:15.736Z,97854.00
2019-01-29T17:21:20.645Z,97854.00
2019-01-29T17:23:25.958Z,97861.00
2019-01-29T17:25:30.832Z,97856.00
2019-01-29T17:27:40.352Z,97850.00
2019-01-29T17:29:42.221Z,97844.00
2019-01-29T17:31:47.020Z,97855.00
2019-01-29T17:33:51.925Z,97845.00
2019-01-29T17:35:56.900Z,97835.00
2019-01-29T17:38:01.883Z,97844.00
2019-01-29T17:40:08.776Z,97837.00
2019-01-29T17:42:13.759Z,97835.00
2019-01-29T17:44:18.561Z,97826.00
2019-01-29T17:46:23.398Z,97838.00
2019-01-29T17:48:28.548Z,97825.00
2019-01-29T17:50:36.082Z,97828.00
2019-01-29T17:52:41.093Z,97819.00
2019-01-29T17:54:46.080Z,97809.00
2019-01-29T17:56:50.970Z,97816.00
2019-01-29T17:58:55.824Z,97815.00
2019-01-29T18:01:02.512Z,97800.00
2019-01-29T18:03:08.255Z,97798.00
2019-01-29T18:05:13.740Z,97797.00
2019-01-29T18:07:18.611Z,97796.00
2019-01-29T18:09:23.654Z,97797.00
2019-01-29T18:11:28.448Z,97792.00
2019-01-29T18:13:33.604Z,97796.00
2019-01-29T18:15:38.654Z,97794.00
2019-01-29T18:17:44.032Z,97783.00
2019-01-29T18:19:49.177Z,97779.00
2019-01-29T18:21:56.914Z,97790.00
2019-01-29T18:24:00.644Z,97782.00
2019-01-29T18:26:06.389Z,97780.00
2019-01-29T18:28:11.373Z,97768.00
2019-01-29T18:30:22.938Z,97766.00
2019-01-29T18:32:27.813Z,97753.00
2019-01-29T18:34:32.934Z,97752.00
2019-01-29T18:36:37.781Z,97745.00
2019-01-29T18:38:43.905Z,97748.00
2019-01-29T18:40:55.282Z,97746.00
2019-01-29T18:43:00.241Z,97737.00
2019-01-29T18:45:06.712Z,97738.00
2019-01-29T18:47:11.928Z,97736.00
2019-01-29T18:49:16.799Z,97729.00
2019-01-29T18:51:21.614Z,97730.00
2019-01-29T18:53:26.476Z,97726.00
2019-01-29T18:55:31.403Z,97735.00
2019-01-29T18:57:36.944Z,97721.00
2019-01-29T18:59:42.027Z,97715.00
2019-01-29T19:01:46.887Z,97716.00
2019-01-29T19:03:51.787Z,97713.00
2019-01-29T19:05:56.743Z,97718.00
2019-01-29T19:08:01.926Z,97725.00
2019-01-29T19:10:08.082Z,97709.00
2019-01-29T19:12:12.943Z,97711.00
2019-01-29T19:14:17.953Z,97701.00
2019-01-29T19:16:22.887Z,97698.00
2019-01-29T19:18:28.121Z,97705.00
2019-01-29T19:20:33.154Z,97702.00
2019-01-29T19:22:38.007Z,97695.00
2019-01-29T19:24:42.869Z,97702.00
2019-01-29T19:26:48.121Z,97701.00
2019-01-29T19:28:53.139Z,97698.00
2019-01-29T19:30:59.038Z,97701.00
2019-01-29T19:33:03.932Z,97702.00
2019-01-29T19:35:09.181Z,97699.00
2019-01-29T19:37:14.033Z,97705.00
2019-01-29T19:39:19.263Z,97695.00
2019-01-29T19:41:24.164Z,97694.00
2019-01-29T19:43:29.344Z,97698.00
2019-01-29T19:45:35.296Z,97687.00
2019-01-29T19:47:40.466Z,97689.00
2019-01-29T19:49:45.311Z,97682.00
2019-01-29T19:51:50.646Z,97675.00
2019-01-29T19:53:55.811Z,97679.00
2019-01-29T19:56:00.654Z,97680.00
2019-01-29T19:58:09.333Z,97673.00
2019-01-29T20:00:18.444Z,97671.00
2019-01-29T20:02:23.619Z,97670.00
2019-01-29T20:04:28.574Z,97668.00
2019-01-29T20:06:33.596Z,97662.00
2019-01-29T20:08:38.518Z,97663.00
2019-01-29T20:10:43.505Z,97658.00
2019-01-29T20:12:48.983Z,97660.00
2019-01-29T20:14:54.030Z,97662.00
2019-01-29T20:16:58.964Z,97656.00
2019-01-29T20:19:03.886Z,97654.00
2019-01-29T20:21:08.868Z,97644.00
2019-01-29T20:23:13.676Z,97631.00
2019-01-29T20:25:19.265Z,97629.00
2019-01-29T20:27:24.433Z,97642.00
2019-01-29T20:29:29.298Z,97633.00
2019-01-29T20:31:34.416Z,97630.00
2019-01-29T20:33:39.235Z,97630.00
2019-01-29T20:35:44.037Z,97621.00
2019-01-29T20:37:48.869Z,97633.00
2019-01-29T20:39:53.723Z,97629.00
2019-01-29T20:41:58.524Z,97628.00
2019-01-29T20:44:03.611Z,97612.00
2019-01-29T20:46:08.536Z,97614.00
2019-01-29T20:48:13.770Z,97621.00
2019-01-29T20:50:23.178Z,97621.00
2019-01-29T20:52:28.254Z,97612.00
2019-01-29T20:54:33.128Z,97597.00
2019-01-29T20:56:37.950Z,97588.00
2019-01-29T20:58:52.312Z,97597.00
2019-01-29T21:00:49.499Z,97587.00
2019-01-29T21:02:55.019Z,97584.00
2019-01-29T21:04:59.933Z,97595.00
2019-01-29T21:07:04.809Z,97589.00
2019-01-29T21:09:10.949Z,97583.00
2019-01-29T21:11:16.011Z,97580.00
2019-01-29T21:13:20.805Z,97576.00
2019-01-29T21:15:26.353Z,97581.00
2019-01-29T21:17:31.169Z,97585.00
2019-01-29T21:19:36.038Z,97586.00
2019-01-29T21:21:41.262Z,97579.00
2019-01-29T21:23:46.369Z,97581.00
2019-01-29T21:25:51.248Z,97569.00
2019-01-29T21:27:56.313Z,97566.00
2019-01-29T21:30:01.386Z,97570.00
2019-01-29T21:32:06.732Z,97564.00
2019-01-29T21:34:11.648Z,97566.00
2019-01-29T21:36:16.450Z,97570.00
2019-01-29T21:38:21.669Z,97566.00
2019-01-29T21:40:27.028Z,97559.00
2019-01-29T21:42:31.822Z,97556.00
2019-01-29T21:44:36.742Z,97549.00
2019-01-29T21:46:41.537Z,97554.00
2019-01-29T21:48:46.359Z,97553.00
2019-01-29T21:50:51.389Z,97552.00
2019-01-29T21:52:56.337Z,97544.00
2019-01-29T21:55:01.429Z,97548.00
2019-01-29T21:57:06.359Z,97540.00
2019-01-29T21:59:13.292Z,97543.00
2019-01-29T22:01:18.249Z,97537.00
2019-01-29T22:03:23.818Z,97532.00
2019-01-29T22:05:28.823Z,97538.00
2019-01-29T22:07:33.732Z,97530.00
2019-01-29T22:09:38.573Z,97525.00
2019-01-29T22:11:43.526Z,97511.00
2019-01-29T22:13:48.657Z,97505.00
2019-01-29T22:15:53.553Z,97505.00
2019-01-29T22:17:58.568Z,97510.00
2019-01-29T22:20:03.400Z,97500.00
2019-01-29T22:22:08.270Z,97501.00
2019-01-29T22:24:13.070Z,97497.00
2019-01-29T22:26:17.910Z,97487.00
2019-01-29T22:28:22.717Z,97484.00
2019-01-29T22:30:31.066Z,97478.00
2019-01-29T22:32:36.333Z,97478.00
2019-01-29T22:34:41.177Z,97479.00
2019-01-29T22:36:45.985Z,97471.00
2019-01-29T22:38:51.112Z,97469.00
2019-01-29T22:40:57.417Z,97463.00
2019-01-29T22:43:02.710Z,97460.00
2019-01-29T22:45:09.847Z,97466.00
2019-01-29T22:47:14.709Z,97462.00
2019-01-29T22:49:19.640Z,97454.00
2019-01-29T22:51:24.554Z,97455.00
2019-01-29T22:53:29.746Z,97452.00
2019-01-29T22:55:34.829Z,97449.00
2019-01-29T22:57:39.804Z,97439.00
2019-01-29T22:59:44.611Z,97436.00
2019-01-29T23:01:49.657Z,97435.00
2019-01-29T23:04:09.493Z,97437.00
2019-01-29T23:07:12.167Z,97433.00
2019-01-29T23:09:16.965Z,97418.00
2019-01-29T23:11:22.192Z,97417.00
2019-01-29T23:13:27.324Z,97421.00
2019-01-29T23:15:32.199Z,97413.00
2019-01-29T23:17:37.099Z,97405.00
2019-01-29T23:19:42.146Z,97400.00
2019-01-29T23:21:47.369Z,97401.00
2019-01-29T23:23:52.481Z,97394.00
2019-01-29T23:25:57.280Z,97392.00
2019-01-29T23:28:02.107Z,97379.00
2019-01-29T23:30:12.337Z,97384.00
2019-01-29T23:32:17.516Z,97380.00
2019-01-29T23:34:22.658Z,97365.00
2019-01-29T23:36:27.455Z,97369.00
2019-01-29T23:38:32.561Z,97372.00
2019-01-29T23:40:37.510Z,97363.00
2019-01-29T23:42:42.315Z,97355.00
2019-01-29T23:44:47.206Z,97351.00
2019-01-29T23:46:52.033Z,97352.00
2019-01-29T23:48:56.907Z,97357.00
2019-01-29T23:51:01.792Z,97357.00
2019-01-29T23:53:06.757Z,97342.00
2019-01-29T23:55:11.911Z,97341.00
2019-01-29T23:57:17.105Z,97329.00
2019-01-29T23:59:22.011Z,97331.00
